Decoded Metar for KMIB (MINOT in ND, USA) (IATA:MIB) | Meteo·Mobile Aviation Weather
aviador You're here:

KMIB Decoded Metar

MINOT in ND, USA
Report Time2019-01-17 21:56:00
UTC Time2019-01-17 23:03:37
Flight Rules Old
Wind360° at 07 kt
W.Decomp.*RWY 29: 3.5 kt HW 6.1 kt RCW
Visibility9999 m
Phenomena:N/A
Clouds:Overcast 080 Hf
Expected CloudBase > 1,200 ft AGL from Temp-Dew spread
Ceiling8,000 ft
Temp-15°C (ISA -27)
Dew Point-18°C (78% RH)
AAT-21.0°C
QNH1021 hPa
Density Alt-1,942 ft
Elevation1,667 ft
Report Wrong Elevation
Raw Report
KMIB 172156Z AUTO 36007KT 10SM OVC080 M15/M18 A3016 RMK AO2 SLP260
T11461184=

Extra information for KMIB:More info

Metar Taf Metar & Taf Last 4 Metars F.Rules Stats Wind Profile Meteogram Temp Stats Airport Information Weather charts Add Link Nearby VenuesMetar ALERT Operation Metar Decoded Social comments

AIRNAV info for KMIB